Time;durP1;ratioP1;P1;durP2;ratioP2;P2;SDS_P1;SDS_P2;PMS_P1;PMS_P2;Temp;Humidity;BMP_temperature;BMP_pressure;BME280_temperature;BME280_humidity;BME280_pressure;Samples;Min_cycle;Max_cycle;Signal;HPM_P1;HPM_P2
2023/11/01 00:01:35;;;;;;;1999.90;999.90;;;13.30;99.90;;;;;;5072557;28;20163;-72
2023/11/01 00:04:00;;;;;;;1999.90;999.90;;;13.20;99.90;;;;;;5072505;28;20416;-72
2023/11/01 00:06:26;;;;;;;1999.90;999.90;;;13.30;99.90;;;;;;5072491;28;20401;-72
2023/11/01 00:08:51;;;;;;;1999.90;999.90;;;13.30;99.90;;;;;;5072196;28;20206;-70
2023/11/01 00:11:17;;;;;;;1999.90;999.90;;;13.30;99.90;;;;;;5072210;28;20580;-72
2023/11/01 00:13:42;;;;;;;1999.90;999.90;;;13.30;99.90;;;;;;5072343;28;20180;-71
2023/11/01 00:16:08;;;;;;;1999.90;999.90;;;13.40;99.90;;;;;;5072276;28;20198;-72
2023/11/01 00:18:34;;;;;;;1999.90;999.90;;;13.20;99.90;;;;;;5072211;28;20245;-72
2023/11/01 00:20:59;;;;;;;1999.90;999.90;;;13.40;99.90;;;;;;5072064;28;20548;-72
2023/11/01 00:23:25;;;;;;;1999.90;999.90;;;13.40;99.90;;;;;;5072283;28;20263;-72
2023/11/01 00:25:51;;;;;;;1999.90;999.90;;;13.40;99.90;;;;;;5072174;28;20167;-72
2023/11/01 00:28:16;;;;;;;1999.90;999.90;;;13.40;99.90;;;;;;5072092;28;20167;-72
2023/11/01 00:30:42;;;;;;;1999.90;999.90;;;13.40;99.90;;;;;;5072066;28;20187;-71
2023/11/01 00:33:07;;;;;;;1999.90;999.90;;;13.40;99.90;;;;;;5071928;28;20230;-72
2023/11/01 00:35:33;;;;;;;1999.90;999.90;;;13.40;99.90;;;;;;5072066;28;20189;-72
2023/11/01 00:37:59;;;;;;;1999.90;999.90;;;13.40;99.90;;;;;;5071968;28;20162;-72
2023/11/01 00:40:24;;;;;;;1999.90;999.90;;;13.40;99.90;;;;;;5071907;28;20179;-71
2023/11/01 00:42:50;;;;;;;1999.90;999.90;;;13.50;99.90;;;;;;5071704;28;20652;-72
2023/11/01 00:45:15;;;;;;;1999.90;999.90;;;13.40;99.90;;;;;;5072081;28;20172;-71
2023/11/01 00:47:41;;;;;;;1999.90;999.90;;;13.50;99.90;;;;;;5071857;28;20171;-71
2023/11/01 00:50:07;;;;;;;1999.90;999.90;;;13.40;99.90;;;;;;5071816;28;20205;-71
2023/11/01 00:52:32;;;;;;;1999.90;999.90;;;13.40;99.90;;;;;;5071612;28;20172;-71
2023/11/01 00:54:58;;;;;;;1999.90;999.90;;;13.40;99.90;;;;;;5071805;28;20447;-71
2023/11/01 00:57:24;;;;;;;1999.90;999.90;;;13.40;99.90;;;;;;5071998;28;20208;-71
2023/11/01 00:59:50;;;;;;;1999.90;999.90;;;13.40;99.90;;;;;;5071886;28;20779;-71
2023/11/01 01:02:15;;;;;;;1999.90;999.90;;;13.50;99.90;;;;;;5071457;28;20252;-71
2023/11/01 01:04:45;;;;;;;1999.90;999.90;;;13.50;99.90;;;;;;5071790;28;20256;-71
2023/11/01 01:07:11;;;;;;;1999.90;999.90;;;13.50;99.90;;;;;;5071727;28;20249;-71
2023/11/01 01:09:37;;;;;;;1999.90;999.90;;;13.40;99.90;;;;;;5071418;28;20498;-71
2023/11/01 01:12:03;;;;;;;1999.90;999.90;;;13.40;99.90;;;;;;5071499;28;20832;-71
2023/11/01 01:14:28;;;;;;;1999.90;999.90;;;13.40;99.90;;;;;;5071799;28;20663;-71
2023/11/01 01:16:54;;;;;;;1999.90;999.90;;;13.40;99.90;;;;;;5071753;28;20165;-71
2023/11/01 01:19:19;;;;;;;1999.90;999.90;;;13.40;99.90;;;;;;5071520;28;20204;-71
2023/11/01 01:21:45;;;;;;;1999.90;999.90;;;13.40;99.90;;;;;;5071337;28;20242;-71
2023/11/01 01:24:10;;;;;;;1999.90;999.90;;;13.40;99.90;;;;;;5071507;28;20193;-71
2023/11/01 01:26:36;;;;;;;1999.90;999.90;;;13.40;99.90;;;;;;5071598;28;20167;-71
2023/11/01 01:29:02;;;;;;;1999.90;999.90;;;13.40;99.90;;;;;;5071349;28;20187;-71
2023/11/01 01:31:29;;;;;;;1999.90;999.90;;;13.40;99.90;;;;;;5071330;28;20212;-71
2023/11/01 01:33:54;;;;;;;1999.90;999.90;;;13.30;99.90;;;;;;5071420;28;20167;-71
2023/11/01 01:36:20;;;;;;;1999.90;999.90;;;13.30;99.90;;;;;;5071353;28;20508;-71
2023/11/01 01:38:46;;;;;;;1999.90;999.90;;;13.00;99.90;;;;;;5071311;28;20532;-71
2023/11/01 01:41:11;;;;;;;1999.90;999.90;;;13.30;99.90;;;;;;5071218;28;20616;-71
2023/11/01 01:43:37;;;;;;;1999.90;999.90;;;13.30;99.90;;;;;;5071345;28;20178;-71
2023/11/01 01:46:10;;;;;;;1999.90;999.90;;;13.20;99.90;;;;;;5071296;28;20170;-71
2023/11/01 01:48:37;;;;;;;1999.90;999.90;;;13.10;99.90;;;;;;5071148;28;20168;-71
2023/11/01 01:51:04;;;;;;;1999.90;999.90;;;13.20;99.90;;;;;;5071026;28;20922;-72
2023/11/01 01:53:32;;;;;;;1999.90;999.90;;;13.10;99.90;;;;;;5071186;28;20460;-72
2023/11/01 01:55:58;;;;;;;1999.90;999.90;;;13.20;99.90;;;;;;5071048;28;20458;-72
2023/11/01 01:58:27;;;;;;;1999.90;999.90;;;13.10;99.90;;;;;;5071136;28;20396;-72
2023/11/01 02:00:54;;;;;;;1999.90;999.90;;;13.10;99.90;;;;;;5070942;28;20430;-72
2023/11/01 02:03:20;;;;;;;1999.90;999.90;;;13.20;99.90;;;;;;5071167;28;20499;-71
2023/11/01 02:05:45;;;;;;;1999.90;999.90;;;13.10;99.90;;;;;;5071136;28;20426;-71
2023/11/01 02:08:11;;;;;;;1999.90;999.90;;;13.10;99.90;;;;;;5071123;28;20168;-72
2023/11/01 02:10:37;;;;;;;1999.90;999.90;;;13.10;99.90;;;;;;5070988;28;20493;-71
2023/11/01 02:13:14;;;;;;;1999.90;999.90;;;13.10;99.90;;;;;;5072202;28;20174;-72
2023/11/01 02:15:41;;;;;;;1999.90;999.90;;;13.10;99.90;;;;;;5074627;28;20456;-71
2023/11/01 02:18:07;;;;;;;1999.90;999.90;;;13.20;99.90;;;;;;5074566;28;20394;-71
2023/11/01 02:20:37;;;;;;;1999.90;999.90;;;13.20;99.90;;;;;;5074442;28;20422;-71
2023/11/01 02:23:17;;;;;;;1999.90;999.90;;;13.10;99.90;;;;;;5061818;28;20414;-71
2023/11/01 02:25:43;;;;;;;1999.90;999.90;;;13.10;99.90;;;;;;5054564;28;20439;-72
2023/11/01 02:28:11;;;;;;;1999.90;999.90;;;13.10;99.90;;;;;;5054409;28;20408;-72
2023/11/01 02:30:40;;;;;;;1999.90;999.90;;;13.10;99.90;;;;;;5054332;28;20506;-71
2023/11/01 02:33:06;;;;;;;1999.90;999.90;;;13.10;99.90;;;;;;5054146;28;20402;-72
2023/11/01 02:35:32;;;;;;;1999.90;999.90;;;13.20;99.90;;;;;;5054217;28;20956;-71
2023/11/01 02:37:57;;;;;;;1999.90;999.90;;;13.20;99.90;;;;;;5054214;28;20402;-71
2023/11/01 02:40:23;;;;;;;1999.90;999.90;;;13.20;99.90;;;;;;5054113;28;20272;-71
2023/11/01 02:42:51;;;;;;;1999.90;999.90;;;13.20;99.90;;;;;;5053978;28;20174;-71
2023/11/01 02:45:17;;;;;;;1999.90;999.90;;;13.10;99.90;;;;;;5054063;28;20168;-71
2023/11/01 02:47:43;;;;;;;1999.90;999.90;;;13.10;99.90;;;;;;5054007;28;20407;-72
2023/11/01 02:50:11;;;;;;;1999.90;999.90;;;13.10;99.90;;;;;;5054120;28;20500;-71
2023/11/01 02:52:38;;;;;;;1999.90;999.90;;;13.10;99.90;;;;;;5053809;28;20932;-71
2023/11/01 02:55:14;;;;;;;1999.90;999.90;;;13.10;99.90;;;;;;5053865;28;20474;-71
2023/11/01 02:57:42;;;;;;;1999.90;999.90;;;13.00;99.90;;;;;;5053900;28;20463;-71
2023/11/01 03:00:17;;;;;;;1999.90;999.90;;;13.00;99.90;;;;;;5053677;28;20791;-72
2023/11/01 03:02:47;;;;;;;1999.90;999.90;;;12.90;99.90;;;;;;5053758;28;20409;-72
2023/11/01 03:05:14;;;;;;;1999.90;999.90;;;12.80;99.90;;;;;;5053876;28;20412;-71
2023/11/01 03:07:40;;;;;;;1999.90;999.90;;;12.70;99.90;;;;;;5053711;28;20406;-71
2023/11/01 03:10:07;;;;;;;1999.90;999.90;;;12.70;99.90;;;;;;5053399;28;20454;-71
2023/11/01 03:12:33;;;;;;;1999.90;999.90;;;12.70;99.90;;;;;;5053318;28;20787;-71
2023/11/01 03:14:58;;;;;;;1999.90;999.90;;;12.60;99.90;;;;;;5053574;28;20451;-71
2023/11/01 03:17:24;;;;;;;1999.90;999.90;;;12.60;99.90;;;;;;5053667;28;20169;-71
2023/11/01 03:19:49;;;;;;;1999.90;999.90;;;12.60;99.90;;;;;;5053441;28;20531;-71
2023/11/01 03:22:15;;;;;;;1999.90;999.90;;;12.60;99.90;;;;;;5053176;28;20261;-71
2023/11/01 03:24:40;;;;;;;1999.90;999.90;;;12.60;99.90;;;;;;5052340;28;20243;-72
2023/11/01 03:27:06;;;;;;;1999.90;999.90;;;12.50;99.90;;;;;;5053316;28;20166;-72
2023/11/01 03:29:32;;;;;;;1999.90;999.90;;;12.50;99.90;;;;;;5053201;28;20188;-71
2023/11/01 03:31:57;;;;;;;1999.90;999.90;;;12.50;99.90;;;;;;5053080;28;20632;-70
2023/11/01 03:34:26;;;;;;;1999.90;999.90;;;12.50;99.90;;;;;;5053125;28;20165;-72
2023/11/01 03:36:53;;;;;;;1999.90;999.90;;;12.50;99.90;;;;;;5053171;28;20188;-72
2023/11/01 03:39:18;;;;;;;1999.90;999.90;;;12.50;99.90;;;;;;5052925;28;20414;-72
2023/11/01 03:41:44;;;;;;;1999.90;999.90;;;12.50;99.90;;;;;;5052813;28;20406;-72
2023/11/01 03:44:10;;;;;;;1999.90;999.90;;;12.50;99.90;;;;;;5052989;28;20230;-72
2023/11/01 03:46:36;;;;;;;1999.90;999.90;;;12.50;99.90;;;;;;5052971;28;20251;-71
2023/11/01 03:49:02;;;;;;;1999.90;999.90;;;12.60;99.90;;;;;;5052927;28;20426;-72
2023/11/01 03:51:28;;;;;;;1999.90;999.90;;;12.60;99.90;;;;;;5052772;28;20937;-72
2023/11/01 03:53:54;;;;;;;1999.90;999.90;;;12.60;99.90;;;;;;5052819;28;20440;-71
2023/11/01 03:56:21;;;;;;;1999.90;999.90;;;12.60;99.90;;;;;;5052639;28;20467;-71
2023/11/01 03:58:47;;;;;;;1999.90;999.90;;;12.50;99.90;;;;;;5052682;28;20163;-72
2023/11/01 04:01:12;;;;;;;1999.90;999.90;;;12.60;99.90;;;;;;5052643;28;20501;-72
2023/11/01 04:03:38;;;;;;;1999.90;999.90;;;12.60;99.90;;;;;;5052663;28;20205;-71
2023/11/01 04:06:04;;;;;;;1999.90;999.90;;;12.70;99.90;;;;;;5052647;28;20254;-70
2023/11/01 04:08:30;;;;;;;1999.90;999.90;;;12.80;99.90;;;;;;5052467;28;20244;-72
2023/11/01 04:10:55;;;;;;;1999.90;999.90;;;12.70;99.90;;;;;;5052220;28;20432;-72
2023/11/01 04:13:21;;;;;;;1999.90;999.90;;;12.80;99.90;;;;;;5052477;28;20164;-72
2023/11/01 04:15:47;;;;;;;1999.90;999.90;;;12.80;99.90;;;;;;5052625;28;20205;-71
2023/11/01 04:18:12;;;;;;;1999.90;999.90;;;12.80;99.90;;;;;;5052439;28;20168;-71
2023/11/01 04:20:38;;;;;;;1999.90;999.90;;;12.80;99.90;;;;;;5052338;28;20192;-71
2023/11/01 04:23:04;;;;;;;1999.90;999.90;;;12.80;99.90;;;;;;5052108;28;20173;-71
2023/11/01 04:25:30;;;;;;;1999.90;999.90;;;12.80;99.90;;;;;;5052253;28;20183;-71
2023/11/01 04:27:56;;;;;;;1999.90;999.90;;;12.80;99.90;;;;;;5052208;28;20464;-71
2023/11/01 04:30:23;;;;;;;1999.90;999.90;;;12.80;99.90;;;;;;5052242;28;20589;-70
2023/11/01 04:32:49;;;;;;;1999.90;999.90;;;12.80;99.90;;;;;;5052124;28;20414;-71
2023/11/01 04:35:15;;;;;;;1999.90;999.90;;;12.80;99.90;;;;;;5051700;28;21009;-71
2023/11/01 04:37:42;;;;;;;1999.90;999.90;;;12.80;99.90;;;;;;5052015;28;20414;-71
2023/11/01 04:40:09;;;;;;;1999.90;999.90;;;12.90;99.90;;;;;;5052018;28;20426;-71
2023/11/01 04:42:39;;;;;;;1999.90;999.90;;;12.80;99.90;;;;;;5052051;28;20812;-71
2023/11/01 04:45:06;;;;;;;1999.90;999.90;;;12.80;99.90;;;;;;5051966;28;20514;-71
2023/11/01 04:47:32;;;;;;;1999.90;999.90;;;12.90;99.90;;;;;;5051893;28;20468;-72
2023/11/01 04:49:57;;;;;;;1999.90;999.90;;;12.90;99.90;;;;;;5051833;28;20835;-72
2023/11/01 04:52:23;;;;;;;1999.90;999.90;;;12.90;99.90;;;;;;5051500;28;20770;-72
2023/11/01 04:54:48;;;;;;;1999.90;999.90;;;12.90;99.90;;;;;;5051754;28;20208;-71
2023/11/01 04:57:14;;;;;;;1999.90;999.90;;;13.00;99.90;;;;;;5051860;28;20171;-72
2023/11/01 04:59:40;;;;;;;1999.90;999.90;;;13.00;99.90;;;;;;5051666;28;20196;-72
2023/11/01 05:02:07;;;;;;;1999.90;999.90;;;13.00;99.90;;;;;;5051612;28;20173;-71
2023/11/01 05:04:33;;;;;;;1999.90;999.90;;;13.10;99.90;;;;;;5051707;28;20436;-71
2023/11/01 05:06:59;;;;;;;1999.90;999.90;;;13.20;99.90;;;;;;5051636;28;20454;-72
2023/11/01 05:09:25;;;;;;;1999.90;999.90;;;13.20;99.90;;;;;;5051497;28;20202;-72
2023/11/01 05:11:50;;;;;;;1999.90;999.90;;;13.30;99.90;;;;;;5051631;28;20223;-72
2023/11/01 05:14:18;;;;;;;1999.90;999.90;;;13.30;99.90;;;;;;5051769;28;20403;-71
2023/11/01 05:16:44;;;;;;;1999.90;999.90;;;13.30;99.90;;;;;;5051552;28;20196;-71
2023/11/01 05:19:09;;;;;;;1999.90;999.90;;;13.30;99.90;;;;;;5051462;28;20423;-72
2023/11/01 05:21:42;;;;;;;1999.90;999.90;;;13.40;99.90;;;;;;5051253;28;20495;-71
2023/11/01 05:24:08;;;;;;;1999.90;999.90;;;13.30;99.90;;;;;;5051573;28;20165;-71
2023/11/01 05:26:36;;;;;;;1999.90;999.90;;;13.30;99.90;;;;;;5051498;28;20423;-71
2023/11/01 05:29:03;;;;;;;1999.90;999.90;;;13.40;99.90;;;;;;5051481;28;20515;-72
2023/11/01 05:31:28;;;;;;;1999.90;999.90;;;13.40;99.90;;;;;;5051361;28;20406;-72
2023/11/01 05:33:54;;;;;;;1999.90;999.90;;;13.40;99.90;;;;;;5051495;28;20409;-72
2023/11/01 05:36:21;;;;;;;1999.90;999.90;;;13.40;99.90;;;;;;5051234;28;20675;-72
2023/11/01 05:38:46;;;;;;;1999.90;999.90;;;13.40;99.90;;;;;;5051406;28;20650;-70
2023/11/01 05:41:12;;;;;;;1999.90;999.90;;;13.40;99.90;;;;;;5051215;28;20403;-71
2023/11/01 05:43:38;;;;;;;1999.90;999.90;;;13.50;99.90;;;;;;5051322;28;20619;-72
2023/11/01 05:46:05;;;;;;;1999.90;999.90;;;13.50;99.90;;;;;;5051385;28;20231;-71
2023/11/01 05:48:32;;;;;;;1999.90;999.90;;;13.50;99.90;;;;;;5053440;28;20413;-71
2023/11/01 05:51:02;;;;;;;1999.90;999.90;;;13.50;99.90;;;;;;5054854;28;20439;-70
2023/11/01 05:53:27;;;;;;;1999.90;999.90;;;13.40;99.90;;;;;;5055123;28;20411;-70
2023/11/01 05:55:53;;;;;;;1999.90;999.90;;;13.40;99.90;;;;;;5055180;28;20541;-71
2023/11/01 05:58:20;;;;;;;1999.90;999.90;;;13.40;99.90;;;;;;5055054;28;20174;-71
2023/11/01 06:00:47;;;;;;;1999.90;999.90;;;13.40;99.90;;;;;;5054864;28;20202;-70
2023/11/01 06:03:13;;;;;;;1999.90;999.90;;;13.40;99.90;;;;;;5054670;28;20497;-70
2023/11/01 06:05:39;;;;;;;1999.90;999.90;;;13.40;99.90;;;;;;5054824;28;20451;-70
2023/11/01 06:08:12;;;;;;;1999.90;999.90;;;13.40;99.90;;;;;;5054810;28;20419;-71
2023/11/01 06:10:38;;;;;;;1999.90;999.90;;;13.40;99.90;;;;;;5054729;28;20711;-71
2023/11/01 06:13:07;;;;;;;1999.90;999.90;;;13.40;99.90;;;;;;5054555;28;20500;-71
2023/11/01 06:15:33;;;;;;;1999.90;999.90;;;13.40;99.90;;;;;;5054654;28;20955;-71
2023/11/01 06:17:59;;;;;;;1999.90;999.90;;;13.40;99.90;;;;;;5054586;28;20411;-71
2023/11/01 06:20:24;;;;;;;1999.90;999.90;;;13.50;99.90;;;;;;5054493;28;20423;-71
2023/11/01 06:22:50;;;;;;;1999.90;999.90;;;13.50;99.90;;;;;;5054403;28;20177;-71
2023/11/01 06:25:19;;;;;;;1999.90;999.90;;;13.50;99.90;;;;;;5054662;28;20252;-72
2023/11/01 06:27:45;;;;;;;1999.90;999.90;;;13.60;99.90;;;;;;5054455;28;20416;-71
2023/11/01 06:30:13;;;;;;;1999.90;999.90;;;13.60;99.90;;;;;;5054370;28;20432;-71
2023/11/01 06:32:38;;;;;;;1999.90;999.90;;;13.60;99.90;;;;;;5054171;28;20168;-71
2023/11/01 06:35:04;;;;;;;1999.90;999.90;;;13.60;99.90;;;;;;5054254;28;20477;-71
2023/11/01 06:37:30;;;;;;;1999.90;999.90;;;13.60;99.90;;;;;;5054220;28;20180;-71
2023/11/01 06:39:56;;;;;;;1999.90;999.90;;;13.60;99.90;;;;;;5054267;28;20440;-71
2023/11/01 06:42:22;;;;;;;1999.90;999.90;;;13.70;99.90;;;;;;5054016;28;20178;-71
2023/11/01 06:44:47;;;;;;;1999.90;999.90;;;13.70;99.90;;;;;;5054189;28;20688;-71
2023/11/01 06:47:13;;;;;;;1999.90;999.90;;;13.70;99.90;;;;;;5054135;28;20173;-71
2023/11/01 06:49:39;;;;;;;1999.90;999.90;;;13.60;99.90;;;;;;5053939;28;20198;-71
2023/11/01 06:52:05;;;;;;;1999.90;999.90;;;13.60;99.90;;;;;;5053806;28;20402;-71
2023/11/01 06:54:31;;;;;;;1999.90;999.90;;;13.50;99.90;;;;;;5054040;28;20182;-71
2023/11/01 06:56:57;;;;;;;1999.90;999.90;;;13.50;99.90;;;;;;5053956;28;20509;-72
2023/11/01 06:59:22;;;;;;;1999.90;999.90;;;13.50;99.90;;;;;;5053559;28;20237;-71
2023/11/01 07:01:48;;;;;;;1999.90;999.90;;;13.50;99.90;;;;;;5053584;28;20164;-71
2023/11/01 07:04:14;;;;;;;1999.90;999.90;;;13.50;99.90;;;;;;5053779;28;20166;-71
2023/11/01 07:06:41;;;;;;;1999.90;999.90;;;13.40;99.90;;;;;;5053923;28;20655;-71
2023/11/01 07:09:07;;;;;;;1999.90;999.90;;;13.20;99.90;;;;;;5053488;28;20449;-72
2023/11/01 07:11:33;;;;;;;1999.90;999.90;;;13.20;99.90;;;;;;5053591;28;20416;-72
2023/11/01 07:13:59;;;;;;;1999.90;999.90;;;13.10;99.90;;;;;;5053506;28;20412;-71
2023/11/01 07:16:25;;;;;;;1999.90;999.90;;;13.10;99.90;;;;;;5053521;28;20208;-71
2023/11/01 07:18:51;;;;;;;1999.90;999.90;;;13.40;99.90;;;;;;5053402;28;20415;-71
2023/11/01 07:21:16;;;;;;;1999.90;999.90;;;13.20;99.90;;;;;;5053334;28;20195;-70
2023/11/01 07:23:43;;;;;;;1999.90;999.90;;;13.20;99.90;;;;;;5053390;28;20408;-71
2023/11/01 07:26:09;;;;;;;1999.90;999.90;;;13.30;99.90;;;;;;5053453;28;20348;-71
2023/11/01 07:28:35;;;;;;;1999.90;999.90;;;13.70;99.90;;;;;;5053194;28;20548;-71
2023/11/01 07:31:01;;;;;;;1999.90;999.90;;;13.50;99.90;;;;;;5053118;28;20417;-71
2023/11/01 07:33:27;;;;;;;1999.90;999.90;;;13.60;99.90;;;;;;5053328;28;20181;-71
2023/11/01 07:35:52;;;;;;;1999.90;999.90;;;13.70;99.90;;;;;;5053121;28;20470;-71
2023/11/01 07:38:18;;;;;;;1999.90;999.90;;;13.70;99.90;;;;;;5053053;28;20212;-71
2023/11/01 07:40:43;;;;;;;1999.90;999.90;;;13.70;99.90;;;;;;5053054;28;20193;-72
2023/11/01 07:43:09;;;;;;;1999.90;999.90;;;13.60;99.90;;;;;;5052897;28;20687;-71
2023/11/01 07:45:34;;;;;;;1999.90;999.90;;;13.60;99.90;;;;;;5053004;28;20575;-70
2023/11/01 07:48:00;;;;;;;1999.90;999.90;;;13.50;99.90;;;;;;5052881;28;20179;-71
2023/11/01 07:50:26;;;;;;;1999.90;999.90;;;13.50;99.90;;;;;;5052894;28;20227;-72
2023/11/01 07:52:51;;;;;;;1999.90;999.90;;;13.50;99.90;;;;;;5052735;28;20177;-70
2023/11/01 07:55:17;;;;;;;1999.90;999.90;;;13.60;99.90;;;;;;5052846;28;20201;-72
2023/11/01 07:57:42;;;;;;;1999.90;999.90;;;13.60;99.90;;;;;;5052747;28;20241;-72
2023/11/01 08:00:10;;;;;;;1999.90;999.90;;;13.70;99.90;;;;;;5052651;28;20192;-72
2023/11/01 08:02:36;;;;;;;1999.90;999.90;;;13.70;99.90;;;;;;5052672;28;20601;-72
2023/11/01 08:05:01;;;;;;;1999.90;999.90;;;13.80;99.90;;;;;;5052691;28;20450;-72
2023/11/01 08:07:27;;;;;;;1999.90;999.90;;;13.90;99.90;;;;;;5052718;28;20172;-72
2023/11/01 08:09:52;;;;;;;1999.90;999.90;;;13.90;99.90;;;;;;5052095;28;20253;-72
2023/11/01 08:12:19;;;;;;;1999.90;999.90;;;14.00;99.90;;;;;;5051972;28;20173;-71
2023/11/01 08:14:45;;;;;;;1999.90;999.90;;;14.00;99.90;;;;;;5052392;28;20256;-72
2023/11/01 08:17:10;;;;;;;1999.90;999.90;;;14.10;99.90;;;;;;5052417;28;20504;-72
2023/11/01 08:19:38;;;;;;;1999.90;999.90;;;14.20;99.90;;;;;;5052480;28;20672;-71
2023/11/01 08:22:04;;;;;;;1999.90;999.90;;;14.20;99.90;;;;;;5052153;28;20410;-71
2023/11/01 08:24:29;;;;;;;1999.90;999.90;;;14.30;99.90;;;;;;5052421;28;20395;-71
2023/11/01 08:26:55;;;;;;;1999.90;999.90;;;14.40;99.90;;;;;;5052291;28;20257;-72
2023/11/01 08:29:21;;;;;;;1999.90;999.90;;;14.40;99.90;;;;;;5052152;28;20658;-71
2023/11/01 08:31:47;;;;;;;1999.90;999.90;;;14.60;99.90;;;;;;5052164;28;20186;-71
2023/11/01 08:34:12;;;;;;;1999.90;999.90;;;14.60;99.90;;;;;;5052220;28;20408;-71
2023/11/01 08:36:38;;;;;;;1999.90;999.90;;;14.70;99.90;;;;;;5051935;28;20567;-71
2023/11/01 08:39:04;;;;;;;1999.90;999.90;;;14.70;99.90;;;;;;5051978;28;20548;-72
2023/11/01 08:41:29;;;;;;;1999.90;999.90;;;14.70;99.90;;;;;;5051867;28;20171;-72
2023/11/01 08:43:55;;;;;;;1999.90;999.90;;;14.70;99.90;;;;;;5051993;28;20182;-72
2023/11/01 08:46:21;;;;;;;1999.90;999.90;;;14.80;99.90;;;;;;5054510;28;20206;-71
2023/11/01 08:48:47;;;;;;;1999.90;999.90;;;14.80;99.90;;;;;;5062521;28;20182;-72
2023/11/01 08:51:14;;;;;;;1999.90;999.90;;;14.80;99.90;;;;;;5051880;28;20182;-72
2023/11/01 08:53:40;;;;;;;1999.90;999.90;;;14.80;99.90;;;;;;5051829;28;20408;-72
2023/11/01 08:56:07;;;;;;;1999.90;999.90;;;14.80;99.90;;;;;;5051703;28;20542;-72
2023/11/01 08:58:33;;;;;;;1999.90;999.90;;;14.90;99.90;;;;;;5051640;28;20417;-72
2023/11/01 09:00:59;;;;;;;1999.90;999.90;;;14.90;99.90;;;;;;5062129;28;20443;-72
2023/11/01 09:03:25;;;;;;;1999.90;999.90;;;14.90;99.90;;;;;;5071701;28;20167;-72
2023/11/01 09:05:52;;;;;;;1999.90;999.90;;;14.80;99.90;;;;;;5062543;28;20476;-72
2023/11/01 09:08:17;;;;;;;1999.90;999.90;;;14.80;99.90;;;;;;5058349;28;20422;-71
2023/11/01 09:10:44;;;;;;;1999.90;999.90;;;14.80;99.90;;;;;;5051467;28;20557;-71
2023/11/01 09:13:10;;;;;;;1999.90;999.90;;;14.80;99.90;;;;;;5051419;28;20165;-72
2023/11/01 09:15:35;;;;;;;1999.90;999.90;;;14.70;99.90;;;;;;5051599;28;20465;-71
2023/11/01 09:18:01;;;;;;;1999.90;999.90;;;14.70;99.90;;;;;;5051641;28;20530;-71
2023/11/01 09:20:26;;;;;;;1999.90;999.90;;;14.70;99.90;;;;;;5051575;28;20181;-71
2023/11/01 09:22:52;;;;;;;1999.90;999.90;;;14.70;99.90;;;;;;5052622;28;20530;-71
2023/11/01 09:25:18;;;;;;;1999.90;999.90;;;14.70;99.90;;;;;;5055625;28;20225;-71
2023/11/01 09:27:43;;;;;;;1999.90;999.90;;;14.70;99.90;;;;;;5055490;28;20180;-71
2023/11/01 09:30:09;;;;;;;1999.90;999.90;;;14.80;99.90;;;;;;5055541;28;20265;-71
2023/11/01 09:32:38;;;;;;;1999.90;999.90;;;14.80;99.90;;;;;;5055334;28;20565;-72
2023/11/01 09:35:07;;;;;;;1999.90;999.90;;;14.80;99.90;;;;;;5056477;28;20460;-71
2023/11/01 09:37:32;;;;;;;1999.90;999.90;;;14.90;99.90;;;;;;5063611;28;20421;-72
2023/11/01 09:39:58;;;;;;;1999.90;999.90;;;15.00;99.90;;;;;;5073960;28;20518;-72
2023/11/01 09:42:25;;;;;;;1999.90;999.90;;;15.00;99.90;;;;;;5075344;28;20541;-72
2023/11/01 09:44:56;;;;;;;1999.90;999.90;;;15.00;99.90;;;;;;5075311;28;20416;-71
2023/11/01 09:47:25;;;;;;;1999.90;999.90;;;15.10;99.90;;;;;;5075252;28;20405;-71
2023/11/01 09:49:50;;;;;;;1999.90;999.90;;;15.10;99.90;;;;;;5075155;28;20476;-72
2023/11/01 09:52:17;;;;;;;1999.90;999.90;;;15.10;99.90;;;;;;5074910;28;20416;-71
2023/11/01 09:54:42;;;;;;;1999.90;999.90;;;15.10;99.90;;;;;;5074973;28;20406;-72
2023/11/01 09:57:12;;;;;;;1999.90;999.90;;;15.10;99.90;;;;;;5075064;28;20412;-71
2023/11/01 09:59:38;;;;;;;1999.90;999.90;;;15.10;99.90;;;;;;5075061;28;20288;-71
2023/11/01 10:02:07;;;;;;;1999.90;999.90;;;15.10;99.90;;;;;;5074722;28;20484;-71
2023/11/01 10:04:34;;;;;;;1999.90;999.90;;;15.10;99.90;;;;;;5074842;28;20412;-72
2023/11/01 10:07:00;;;;;;;1999.90;999.90;;;15.10;99.90;;;;;;5074841;28;20458;-71
2023/11/01 10:09:28;;;;;;;1999.90;999.90;;;15.20;99.90;;;;;;5074557;28;20449;-71
2023/11/01 10:11:53;;;;;;;1999.90;999.90;;;15.20;99.90;;;;;;5074720;28;20175;-72
2023/11/01 10:14:30;;;;;;;1999.90;999.90;;;15.20;99.90;;;;;;5074914;28;20397;-71
2023/11/01 10:16:57;;;;;;;1999.90;999.90;;;15.20;99.90;;;;;;5074687;28;20576;-72
2023/11/01 10:19:24;;;;;;;1999.90;999.90;;;15.20;99.90;;;;;;5074477;28;20432;-72
2023/11/01 10:21:54;;;;;;;1999.90;999.90;;;15.20;99.90;;;;;;5074600;28;20429;-72
2023/11/01 10:24:26;;;;;;;1999.90;999.90;;;15.30;99.90;;;;;;5074430;28;20460;-72
2023/11/01 10:26:52;;;;;;;1999.90;999.90;;;15.30;99.90;;;;;;5056777;28;20777;-72
2023/11/01 10:29:18;;;;;;;1999.90;999.90;;;15.30;99.90;;;;;;5074223;28;20578;-70
2023/11/01 10:31:55;;;;;;;1999.90;999.90;;;15.40;99.90;;;;;;5074174;28;20962;-71
2023/11/01 10:34:28;;;;;;;1999.90;999.90;;;15.40;99.90;;;;;;5073837;28;20500;-71
2023/11/01 10:36:54;;;;;;;1999.90;999.90;;;15.40;99.90;;;;;;5074253;28;20952;-71
2023/11/01 10:39:21;;;;;;;1999.90;999.90;;;15.40;99.90;;;;;;5074317;28;20431;-71
2023/11/01 10:41:52;;;;;;;1999.90;999.90;;;15.50;99.90;;;;;;5074000;28;20821;-71
2023/11/01 10:44:22;;;;;;;1999.90;999.90;;;15.50;99.90;;;;;;5074080;28;20406;-71
2023/11/01 10:46:49;;;;;;;1999.90;999.90;;;15.50;99.90;;;;;;5074194;28;20407;-71
2023/11/01 10:49:15;;;;;;;1999.90;999.90;;;15.50;99.90;;;;;;5074002;28;20934;-71
2023/11/01 10:51:43;;;;;;;1999.90;999.90;;;15.50;99.90;;;;;;5073833;28;20405;-71
2023/11/01 10:54:10;;;;;;;1999.90;999.90;;;15.50;99.90;;;;;;5073919;28;20445;-72
2023/11/01 10:56:36;;;;;;;1999.90;999.90;;;15.50;99.90;;;;;;5073944;28;20530;-71
2023/11/01 10:59:29;;;;;;;1999.90;999.90;;;15.60;99.90;;;;;;5073783;28;20452;-71
2023/11/01 11:02:16;;;;;;;1999.90;999.90;;;15.70;99.90;;;;;;5073810;28;20409;-72
2023/11/01 11:05:04;;;;;;;1999.90;999.90;;;15.70;99.90;;;;;;5073720;28;20506;-70
2023/11/01 11:07:49;;;;;;;1999.90;999.90;;;15.70;99.90;;;;;;5073705;28;20401;-71
2023/11/01 11:10:21;;;;;;;1999.90;999.90;;;15.70;99.90;;;;;;5073675;28;20452;-71
2023/11/01 11:13:09;;;;;;;1999.90;999.90;;;15.70;99.90;;;;;;5073494;28;20412;-71
2023/11/01 11:15:47;;;;;;;1999.90;999.90;;;15.70;99.90;;;;;;5073539;28;20994;-70
2023/11/01 11:18:14;;;;;;;1999.90;999.90;;;15.70;99.90;;;;;;5073564;28;20434;-70
2023/11/01 11:20:40;;;;;;;1999.90;999.90;;;15.60;99.90;;;;;;5073422;28;20511;-71
2023/11/01 11:23:06;;;;;;;1999.90;999.90;;;15.60;99.90;;;;;;5073265;28;20485;-71
2023/11/01 11:25:38;;;;;;;1999.90;999.90;;;15.60;99.90;;;;;;5073456;28;20556;-71
2023/11/01 11:28:07;;;;;;;1999.90;999.90;;;15.70;99.90;;;;;;5073277;28;20177;-71
2023/11/01 11:30:45;;;;;;;1999.90;999.90;;;15.60;99.90;;;;;;5073260;28;20467;-71
2023/11/01 11:33:11;;;;;;;1999.90;999.90;;;15.70;99.90;;;;;;5073097;28;20415;-71
2023/11/01 11:35:37;;;;;;;1999.90;999.90;;;15.70;99.90;;;;;;5073289;28;20533;-72
2023/11/01 11:38:33;;;;;;;1999.90;999.90;;;15.60;99.90;;;;;;5073068;28;20413;-71
2023/11/01 11:41:13;;;;;;;1999.90;999.90;;;15.60;99.90;;;;;;5073080;28;20938;-72
2023/11/01 11:44:20;;;;;;;1999.90;999.90;;;15.50;99.90;;;;;;5073030;28;21007;-71
2023/11/01 11:46:50;;;;;;;1999.90;999.90;;;15.50;99.90;;;;;;5072162;28;20405;-72
2023/11/01 11:49:24;;;;;;;1999.90;999.90;;;15.50;99.90;;;;;;5072839;28;20437;-72
2023/11/01 11:51:55;;;;;;;1999.90;999.90;;;15.50;99.90;;;;;;5072626;28;20416;-72
2023/11/01 11:54:22;;;;;;;1999.90;999.90;;;15.50;99.90;;;;;;5072875;28;20448;-71
2023/11/01 11:56:52;;;;;;;1999.90;999.90;;;15.50;99.90;;;;;;5072801;28;20495;-72
2023/11/01 11:59:20;;;;;;;1999.90;999.90;;;15.50;99.90;;;;;;5072673;28;20514;-72